Time;durP1;ratioP1;P1;durP2;ratioP2;P2;SDS_P1;SDS_P2;PMS_P1;PMS_P2;Temp;Humidity;BMP_temperature;BMP_pressure;BME280_temperature;BME280_humidity;BME280_pressure;Samples;Min_cycle;Max_cycle;Signal;HPM_P1;HPM_P2
2022/11/24 00:01:07;;;;;;;38.85;6.72;;;9.70;93.50;;;;;;5025176;28;20816;-73
2022/11/24 00:03:32;;;;;;;27.20;5.15;;;9.70;93.60;;;;;;5016953;28;20026;-73
2022/11/24 00:06:03;;;;;;;18.23;4.82;;;9.60;93.60;;;;;;5020576;28;20369;-72
2022/11/24 00:08:29;;;;;;;23.58;4.63;;;9.60;93.80;;;;;;5021425;28;20037;-72
2022/11/24 00:10:55;;;;;;;25.65;5.85;;;9.60;93.80;;;;;;5019181;28;20072;-73
2022/11/24 00:13:20;;;;;;;19.45;4.68;;;9.60;93.80;;;;;;5030504;28;20022;-73
2022/11/24 00:15:46;;;;;;;26.85;5.55;;;9.60;93.80;;;;;;5013986;28;20084;-73
2022/11/24 00:18:12;;;;;;;22.42;5.50;;;9.60;94.20;;;;;;5009671;28;20038;-73
2022/11/24 00:20:37;;;;;;;24.50;5.20;;;9.70;93.90;;;;;;5016047;28;20131;-73
2022/11/24 00:23:03;;;;;;;17.55;5.47;;;9.70;93.90;;;;;;5009831;28;20125;-73
2022/11/24 00:25:29;;;;;;;26.15;5.15;;;9.70;93.80;;;;;;5022472;28;20096;-73
2022/11/24 00:27:54;;;;;;;22.27;4.18;;;9.70;93.80;;;;;;5019341;28;20353;-73
2022/11/24 00:30:20;;;;;;;16.15;4.70;;;9.70;93.70;;;;;;5021145;28;20412;-74
2022/11/24 00:32:46;;;;;;;23.83;4.35;;;9.70;93.40;;;;;;5016964;28;20544;-74
2022/11/24 00:35:11;;;;;;;21.83;4.07;;;9.70;93.50;;;;;;5017982;28;20061;-72
2022/11/24 00:37:37;;;;;;;22.67;5.43;;;9.70;93.40;;;;;;5015794;28;20022;-73
2022/11/24 00:40:03;;;;;;;27.33;5.40;;;9.70;93.50;;;;;;5016260;28;20048;-73
2022/11/24 00:42:29;;;;;;;23.33;5.38;;;9.70;93.40;;;;;;5023511;28;20056;-73
2022/11/24 00:44:58;;;;;;;31.27;5.38;;;9.70;93.30;;;;;;5016709;28;20021;-72
2022/11/24 00:47:24;;;;;;;20.40;4.65;;;9.70;93.30;;;;;;5021480;28;20034;-73
2022/11/24 00:49:50;;;;;;;19.38;5.25;;;9.70;93.20;;;;;;5014985;28;20017;-73
2022/11/24 00:52:16;;;;;;;23.95;4.30;;;9.70;93.30;;;;;;5016915;28;20025;-72
2022/11/24 00:54:41;;;;;;;18.42;3.88;;;9.70;93.30;;;;;;5011697;28;20026;-73
2022/11/24 00:57:07;;;;;;;16.48;3.85;;;9.70;93.10;;;;;;5016653;28;20065;-74
2022/11/24 00:59:33;;;;;;;15.88;3.72;;;9.70;93.30;;;;;;5010172;28;20029;-73
2022/11/24 01:01:58;;;;;;;17.60;4.10;;;9.70;93.00;;;;;;5015754;28;20144;-73
2022/11/24 01:04:24;;;;;;;17.48;4.13;;;9.70;92.80;;;;;;5020966;28;20030;-73
2022/11/24 01:06:50;;;;;;;27.25;5.07;;;9.70;93.10;;;;;;5024627;28;20152;-73
2022/11/24 01:09:15;;;;;;;19.00;3.95;;;9.60;93.30;;;;;;5020674;28;20030;-72
2022/11/24 01:14:26;;;;;;;30.48;5.95;;;9.70;93.20;;;;;;5017724;28;20061;-73
2022/11/24 01:16:52;;;;;;;21.08;5.05;;;9.70;93.30;;;;;;5017016;28;20037;-72
2022/11/24 01:19:18;;;;;;;19.25;3.85;;;9.60;93.60;;;;;;5019200;28;20112;-73
2022/11/24 01:21:45;;;;;;;23.55;4.63;;;9.70;93.50;;;;;;5016030;28;20484;-73
2022/11/24 01:24:11;;;;;;;30.70;5.47;;;9.70;93.30;;;;;;5014719;28;20025;-72
2022/11/24 01:26:37;;;;;;;22.42;3.95;;;9.70;93.00;;;;;;5017972;28;20021;-73
2022/11/24 01:29:03;;;;;;;21.45;5.00;;;9.70;92.80;;;;;;5016433;28;20028;-72
2022/11/24 01:31:29;;;;;;;18.58;3.75;;;9.70;93.20;;;;;;5016907;28;20025;-73
2022/11/24 01:33:54;;;;;;;20.90;3.92;;;9.70;92.90;;;;;;5030388;28;20083;-73
2022/11/24 01:36:21;;;;;;;22.40;3.95;;;9.80;93.00;;;;;;5018066;28;20037;-73
2022/11/24 01:38:47;;;;;;;15.98;3.13;;;9.70;93.10;;;;;;5026153;28;20467;-73
2022/11/24 01:41:21;;;;;;;14.15;4.65;;;9.70;93.00;;;;;;5011414;28;20095;-73
2022/11/24 01:43:47;;;;;;;17.75;3.28;;;9.70;92.90;;;;;;5014032;28;20049;-73
2022/11/24 01:46:16;;;;;;;21.92;4.35;;;9.80;92.90;;;;;;5010429;28;20025;-73
2022/11/24 01:48:47;;;;;;;20.52;3.58;;;9.80;92.90;;;;;;5028539;28;20053;-73
2022/11/24 01:51:19;;;;;;;15.73;2.58;;;9.80;92.50;;;;;;5029610;28;20030;-74
2022/11/24 01:53:53;;;;;;;17.02;4.07;;;9.80;92.50;;;;;;5024211;28;20033;-73
2022/11/24 01:56:19;;;;;;;22.25;4.97;;;9.80;92.40;;;;;;5010183;28;20038;-73
2022/11/24 01:58:47;;;;;;;15.00;3.50;;;9.80;92.50;;;;;;5011119;28;20040;-73
2022/11/24 02:01:12;;;;;;;19.05;4.85;;;9.90;92.40;;;;;;5018063;28;20065;-71
2022/11/24 02:03:42;;;;;;;17.67;4.97;;;9.80;92.40;;;;;;5018653;28;20050;-73
2022/11/24 02:06:11;;;;;;;22.60;4.85;;;9.80;92.40;;;;;;5017217;28;20026;-72
2022/11/24 02:08:49;;;;;;;16.23;3.42;;;9.80;92.50;;;;;;5021625;28;20506;-72
2022/11/24 02:11:14;;;;;;;20.58;3.88;;;9.80;92.30;;;;;;5029889;28;20075;-72
2022/11/24 02:13:42;;;;;;;19.50;4.53;;;9.70;92.20;;;;;;5022107;28;20029;-72
2022/11/24 02:16:09;;;;;;;19.83;3.50;;;9.70;92.40;;;;;;5029033;28;20049;-72
2022/11/24 02:18:37;;;;;;;24.52;4.15;;;9.70;92.80;;;;;;5022117;28;20083;-74
2022/11/24 02:21:04;;;;;;;16.00;3.58;;;9.70;92.40;;;;;;5033231;28;20096;-73
2022/11/24 02:23:58;;;;;;;16.40;3.85;;;9.70;92.40;;;;;;5020067;28;20372;-73
2022/11/24 02:26:41;;;;;;;31.75;5.15;;;9.70;92.60;;;;;;5026053;28;20049;-74
2022/11/24 02:29:10;;;;;;;15.18;3.28;;;9.70;92.60;;;;;;5023624;28;20112;-73
2022/11/24 02:31:36;;;;;;;16.15;4.07;;;9.70;92.80;;;;;;5020542;28;20034;-73
2022/11/24 02:34:01;;;;;;;16.10;3.45;;;9.60;92.60;;;;;;5025179;28;20026;-72
2022/11/24 02:36:28;;;;;;;19.08;3.78;;;9.70;92.70;;;;;;5021968;28;20484;-71
2022/11/24 02:38:54;;;;;;;24.05;4.93;;;9.70;92.40;;;;;;5031824;28;20049;-72
2022/11/24 02:41:23;;;;;;;20.25;4.55;;;9.70;92.50;;;;;;5022492;28;20072;-73
2022/11/24 02:43:55;;;;;;;14.80;4.25;;;9.70;92.40;;;;;;5018091;28;20029;-72
2022/11/24 02:46:21;;;;;;;27.15;4.03;;;9.70;92.40;;;;;;5032360;28;20052;-72
2022/11/24 02:48:47;;;;;;;14.95;3.13;;;9.70;92.20;;;;;;5019212;28;20484;-72
2022/11/24 02:51:13;;;;;;;24.25;4.68;;;9.70;92.10;;;;;;5033436;28;20025;-73
2022/11/24 02:53:39;;;;;;;13.27;2.78;;;9.60;92.60;;;;;;5029870;28;20029;-73
2022/11/24 02:56:05;;;;;;;13.95;3.20;;;9.60;92.50;;;;;;5032220;28;20411;-73
2022/11/24 02:58:31;;;;;;;15.07;3.70;;;9.60;92.30;;;;;;5015536;28;20033;-74
2022/11/24 03:00:56;;;;;;;16.60;3.42;;;9.60;92.60;;;;;;5030717;28;20021;-72
2022/11/24 03:03:23;;;;;;;21.98;4.78;;;9.60;92.50;;;;;;5022843;28;20026;-73
2022/11/24 03:05:48;;;;;;;26.65;3.47;;;9.60;92.20;;;;;;5028454;28;20464;-73
2022/11/24 03:08:15;;;;;;;17.55;3.38;;;9.60;92.40;;;;;;5029753;28;20041;-74
2022/11/24 03:10:40;;;;;;;21.50;3.35;;;9.50;92.40;;;;;;5026073;28;20040;-72
2022/11/24 03:13:06;;;;;;;23.30;3.45;;;9.50;92.20;;;;;;5015477;28;20021;-73
2022/11/24 03:15:33;;;;;;;22.30;4.10;;;9.50;92.20;;;;;;5021145;28;20128;-73
2022/11/24 03:17:58;;;;;;;18.42;3.88;;;9.50;92.40;;;;;;5027506;28;20715;-73
2022/11/24 03:20:24;;;;;;;21.50;3.97;;;9.50;92.60;;;;;;5019634;28;20022;-72
2022/11/24 03:22:50;;;;;;;22.83;4.68;;;9.40;92.70;;;;;;5027444;28;20017;-72
2022/11/24 03:25:16;;;;;;;29.38;4.43;;;9.40;92.90;;;;;;5024597;28;20045;-73
2022/11/24 03:27:46;;;;;;;14.40;4.00;;;9.40;92.80;;;;;;5028715;28;20438;-73
2022/11/24 03:30:12;;;;;;;21.40;4.15;;;9.50;92.50;;;;;;5023833;28;20112;-72
2022/11/24 03:32:38;;;;;;;20.40;4.85;;;9.50;92.50;;;;;;5021117;28;20108;-71
2022/11/24 03:35:04;;;;;;;23.90;3.78;;;9.50;92.50;;;;;;5030506;28;20462;-71
2022/11/24 03:37:30;;;;;;;17.40;2.72;;;9.50;92.50;;;;;;5026737;28;20038;-73
2022/11/24 03:39:57;;;;;;;19.85;3.80;;;9.40;92.30;;;;;;5019366;28;20104;-73
2022/11/24 03:42:23;;;;;;;21.88;6.10;;;9.40;92.70;;;;;;5026110;28;20021;-73
2022/11/24 03:44:48;;;;;;;27.75;5.38;;;9.50;92.80;;;;;;5029428;28;20030;-72
2022/11/24 03:47:14;;;;;;;22.42;4.53;;;9.50;92.80;;;;;;5024239;28;20022;-73
2022/11/24 03:49:40;;;;;;;27.08;5.10;;;9.50;92.50;;;;;;5022811;28;20022;-72
2022/11/24 03:52:06;;;;;;;16.88;4.10;;;9.60;92.40;;;;;;5027891;28;20052;-72
2022/11/24 03:54:32;;;;;;;25.20;4.20;;;9.50;92.60;;;;;;5029064;28;20037;-73
2022/11/24 03:56:58;;;;;;;22.23;3.97;;;9.50;92.80;;;;;;5023788;28;20037;-73
2022/11/24 03:59:23;;;;;;;20.83;4.28;;;9.50;92.60;;;;;;5028817;28;20026;-73
2022/11/24 04:01:49;;;;;;;22.60;4.78;;;9.60;92.50;;;;;;5023001;28;20017;-72
2022/11/24 04:04:14;;;;;;;23.83;4.75;;;9.50;92.40;;;;;;5018861;28;20099;-73
2022/11/24 04:06:40;;;;;;;21.67;4.43;;;9.60;92.20;;;;;;5024523;28;20449;-73
2022/11/24 04:09:06;;;;;;;13.73;3.78;;;9.50;92.10;;;;;;5029503;28;20028;-73
2022/11/24 04:14:18;;;;;;;19.10;4.32;;;9.50;92.60;;;;;;5019943;28;20055;-73
2022/11/24 04:16:44;;;;;;;11.25;3.30;;;9.50;92.50;;;;;;5012358;28;20606;-73
2022/11/24 04:19:09;;;;;;;33.80;6.32;;;9.50;92.30;;;;;;5028046;28;20101;-73
2022/11/24 04:21:35;;;;;;;17.50;3.45;;;9.50;92.30;;;;;;5022502;28;20485;-73
2022/11/24 04:24:00;;;;;;;23.33;3.30;;;9.60;92.50;;;;;;5029511;28;20029;-73
2022/11/24 04:26:26;;;;;;;23.17;4.68;;;9.60;92.40;;;;;;5008666;28;20050;-72
2022/11/24 04:28:52;;;;;;;17.05;3.70;;;9.60;92.20;;;;;;5029486;28;20029;-72
2022/11/24 04:31:18;;;;;;;20.00;4.53;;;9.60;92.20;;;;;;5028461;28;20025;-72
2022/11/24 04:33:43;;;;;;;26.17;6.00;;;9.60;92.20;;;;;;5023343;28;20034;-72
2022/11/24 04:36:12;;;;;;;19.30;3.83;;;9.60;92.40;;;;;;5016459;28;20060;-72
2022/11/24 04:38:38;;;;;;;12.90;2.65;;;9.60;92.40;;;;;;5029457;28;20079;-72
2022/11/24 04:41:04;;;;;;;20.55;4.32;;;9.60;92.20;;;;;;5027759;28;20026;-72
2022/11/24 04:43:30;;;;;;;17.85;4.13;;;9.60;92.20;;;;;;5021508;28;20101;-73
2022/11/24 04:45:58;;;;;;;22.10;4.50;;;9.60;92.00;;;;;;5028060;28;20057;-72
2022/11/24 04:48:24;;;;;;;19.67;5.53;;;9.60;92.10;;;;;;5029406;28;20100;-72
2022/11/24 04:50:50;;;;;;;19.58;4.32;;;9.60;92.10;;;;;;5023424;28;20476;-72
2022/11/24 04:53:16;;;;;;;26.67;5.53;;;9.60;92.10;;;;;;5017987;28;20025;-72
2022/11/24 04:55:41;;;;;;;15.60;3.45;;;9.70;92.10;;;;;;5020646;28;20038;-73
2022/11/24 04:58:10;;;;;;;22.38;4.45;;;9.70;92.20;;;;;;5023567;28;20471;-74
2022/11/24 05:00:37;;;;;;;19.67;4.13;;;9.60;92.50;;;;;;5029040;28;20372;-73
2022/11/24 05:03:03;;;;;;;27.73;5.07;;;9.60;92.60;;;;;;5026319;28;20029;-72
2022/11/24 05:05:29;;;;;;;22.00;4.05;;;9.60;92.60;;;;;;5012724;28;20026;-72
2022/11/24 05:07:57;;;;;;;23.83;5.07;;;9.60;92.80;;;;;;5020758;28;20087;-73
2022/11/24 05:10:34;;;;;;;20.55;4.57;;;9.60;92.70;;;;;;5027036;28;20028;-73
2022/11/24 05:13:01;;;;;;;19.90;4.68;;;9.60;92.70;;;;;;5016015;28;20029;-72
2022/11/24 05:15:27;;;;;;;26.73;4.63;;;9.60;92.70;;;;;;5027454;28;20033;-72
2022/11/24 05:17:53;;;;;;;34.08;5.00;;;9.60;92.70;;;;;;5026900;28;20168;-72
2022/11/24 05:20:19;;;;;;;21.20;3.95;;;9.60;92.40;;;;;;5026369;28;20123;-73
2022/11/24 05:22:45;;;;;;;15.38;3.92;;;9.60;92.60;;;;;;5022097;28;20025;-73
2022/11/24 05:25:10;;;;;;;13.77;3.53;;;9.60;92.40;;;;;;5017337;28;20490;-72
2022/11/24 05:27:36;;;;;;;18.75;3.60;;;9.70;92.40;;;;;;5023978;28;20037;-72
2022/11/24 05:30:02;;;;;;;13.52;2.45;;;9.60;92.40;;;;;;5016275;28;20026;-73
2022/11/24 05:32:28;;;;;;;14.93;3.03;;;9.70;92.40;;;;;;5020494;28;20068;-72
2022/11/24 05:34:54;;;;;;;10.52;2.13;;;9.60;92.30;;;;;;5017678;28;20049;-73
2022/11/24 05:37:20;;;;;;;13.45;2.70;;;9.70;92.30;;;;;;5019297;28;20091;-73
2022/11/24 05:39:46;;;;;;;13.48;3.97;;;9.60;92.50;;;;;;5015420;28;20036;-72
2022/11/24 05:44:56;;;;;;;12.85;2.60;;;9.60;92.60;;;;;;5015635;28;20083;-73
2022/11/24 05:47:22;;;;;;;13.82;2.85;;;9.70;92.50;;;;;;5025102;28;20021;-73
2022/11/24 05:49:48;;;;;;;12.40;2.42;;;9.60;92.50;;;;;;5024909;28;20025;-73
2022/11/24 05:52:15;;;;;;;10.55;2.55;;;9.60;92.40;;;;;;5027387;28;20108;-74
2022/11/24 05:54:40;;;;;;;14.10;2.67;;;9.60;92.60;;;;;;5028620;28;20053;-73
2022/11/24 05:57:06;;;;;;;10.27;2.55;;;9.60;92.60;;;;;;5033982;28;20033;-71
2022/11/24 05:59:32;;;;;;;10.48;2.25;;;9.60;92.50;;;;;;5019773;28;20026;-72
2022/11/24 06:01:58;;;;;;;11.75;2.90;;;9.60;92.40;;;;;;5031972;28;20029;-73
2022/11/24 06:04:24;;;;;;;12.55;2.83;;;9.60;92.30;;;;;;5029482;28;20025;-72
2022/11/24 06:06:49;;;;;;;12.27;2.70;;;9.50;92.50;;;;;;5024866;28;20029;-74
2022/11/24 06:09:15;;;;;;;10.23;2.50;;;9.60;92.50;;;;;;5031697;28;20053;-73
2022/11/24 06:11:42;;;;;;;7.32;2.38;;;9.60;92.40;;;;;;5021223;28;20084;-72
2022/11/24 06:14:09;;;;;;;7.57;2.15;;;9.60;92.50;;;;;;5031361;28;20128;-73
2022/11/24 06:16:35;;;;;;;10.02;2.20;;;9.60;92.50;;;;;;5025953;28;20095;-73
2022/11/24 06:19:00;;;;;;;10.40;2.30;;;9.50;92.50;;;;;;5033888;28;20367;-72
2022/11/24 06:21:26;;;;;;;9.88;2.00;;;9.60;92.50;;;;;;5024780;28;20100;-75
2022/11/24 06:23:52;;;;;;;6.57;1.90;;;9.50;92.70;;;;;;5026137;28;20114;-73
2022/11/24 06:26:18;;;;;;;9.38;1.92;;;9.60;92.80;;;;;;5021226;28;20049;-72
2022/11/24 06:28:43;;;;;;;12.70;2.45;;;9.60;92.80;;;;;;5034719;28;20026;-72
2022/11/24 06:31:10;;;;;;;5.30;1.52;;;9.60;92.70;;;;;;5029925;28;20017;-73
2022/11/24 06:33:37;;;;;;;11.13;2.10;;;9.50;93.00;;;;;;5022150;28;20040;-73
2022/11/24 06:36:05;;;;;;;11.75;2.40;;;9.50;92.80;;;;;;5022618;28;20040;-73
2022/11/24 06:38:31;;;;;;;11.52;2.17;;;9.60;93.10;;;;;;5030349;28;20116;-73
2022/11/24 06:41:02;;;;;;;6.97;2.05;;;9.60;93.10;;;;;;5022858;28;20044;-73
2022/11/24 06:43:29;;;;;;;11.05;2.85;;;9.60;93.20;;;;;;5032865;28;20129;-73
2022/11/24 06:45:55;;;;;;;10.38;3.05;;;9.60;93.40;;;;;;5023552;28;20038;-72
2022/11/24 06:48:22;;;;;;;9.27;2.45;;;9.60;93.50;;;;;;5031831;28;20021;-74
2022/11/24 06:50:48;;;;;;;9.70;2.60;;;9.60;93.70;;;;;;5034238;28;20106;-73
2022/11/24 06:53:14;;;;;;;13.02;3.50;;;9.60;94.10;;;;;;5034634;28;20030;-72
2022/11/24 06:55:40;;;;;;;6.13;2.55;;;9.60;94.00;;;;;;5033673;28;20490;-73
2022/11/24 06:58:06;;;;;;;12.77;3.08;;;9.50;93.80;;;;;;5026904;28;20034;-74
2022/11/24 07:00:31;;;;;;;8.98;3.10;;;9.50;94.00;;;;;;5024041;28;20071;-74
2022/11/24 07:02:58;;;;;;;11.07;4.80;;;9.50;94.30;;;;;;5028037;28;20112;-74
2022/11/24 07:05:25;;;;;;;5.85;3.20;;;9.40;94.60;;;;;;5024582;28;20021;-73
2022/11/24 07:07:51;;;;;;;11.00;4.25;;;9.40;94.50;;;;;;5015786;28;20592;-73
2022/11/24 07:10:17;;;;;;;10.93;5.15;;;9.40;94.40;;;;;;5022684;28;20107;-73
2022/11/24 07:12:42;;;;;;;16.80;5.97;;;9.40;94.40;;;;;;5019890;28;20071;-73
2022/11/24 07:15:08;;;;;;;14.98;5.45;;;9.30;94.40;;;;;;5019488;28;20030;-71
2022/11/24 07:17:36;;;;;;;13.75;6.60;;;9.40;94.50;;;;;;5024914;28;20021;-73
2022/11/24 07:20:02;;;;;;;15.05;6.18;;;9.40;94.40;;;;;;5030323;28;20025;-72
2022/11/24 07:22:27;;;;;;;13.43;6.60;;;9.40;94.60;;;;;;5022000;28;20487;-73
2022/11/24 07:24:53;;;;;;;9.98;6.25;;;9.40;94.60;;;;;;5028888;28;20557;-71
2022/11/24 07:27:18;;;;;;;14.90;7.00;;;9.40;94.50;;;;;;5021638;28;20025;-71
2022/11/24 07:29:44;;;;;;;16.02;7.68;;;9.50;94.60;;;;;;5025857;28;20043;-72
2022/11/24 07:32:10;;;;;;;16.55;6.95;;;9.50;94.70;;;;;;5029508;28;20021;-72
2022/11/24 07:34:35;;;;;;;16.35;7.43;;;9.50;94.70;;;;;;5028795;28;20155;-72
2022/11/24 07:37:01;;;;;;;13.50;5.80;;;9.50;94.60;;;;;;5028315;28;20042;-73
2022/11/24 07:39:26;;;;;;;16.65;6.65;;;9.60;94.80;;;;;;5021740;28;20095;-73
2022/11/24 07:41:52;;;;;;;10.70;6.05;;;9.60;94.40;;;;;;5022659;28;20574;-72
2022/11/24 07:44:17;;;;;;;13.50;5.95;;;9.60;94.50;;;;;;5020271;28;20494;-72
2022/11/24 07:46:43;;;;;;;17.02;6.68;;;9.70;94.40;;;;;;5023828;28;20542;-72
2022/11/24 07:49:08;;;;;;;15.40;7.47;;;9.70;94.30;;;;;;5024680;28;20022;-73
2022/11/24 07:51:35;;;;;;;15.18;6.93;;;9.70;94.30;;;;;;5021718;28;20024;-72
2022/11/24 07:54:01;;;;;;;17.10;8.07;;;9.70;94.30;;;;;;5017894;28;20140;-73
2022/11/24 07:56:27;;;;;;;14.18;6.60;;;9.80;94.30;;;;;;5029762;28;20845;-73
2022/11/24 07:58:52;;;;;;;16.10;7.90;;;9.80;94.20;;;;;;5017734;28;20030;-71
2022/11/24 08:01:18;;;;;;;18.13;9.10;;;9.80;94.20;;;;;;5026419;28;20030;-73
2022/11/24 08:03:45;;;;;;;29.95;13.85;;;9.80;94.10;;;;;;5021920;28;20057;-73
2022/11/24 08:06:12;;;;;;;18.73;10.23;;;9.80;94.20;;;;;;5021897;28;20137;-73
2022/11/24 08:08:38;;;;;;;21.85;9.65;;;9.80;94.10;;;;;;5010793;28;20040;-72
2022/11/24 08:11:07;;;;;;;18.45;9.30;;;9.80;94.00;;;;;;5019282;28;20026;-73
2022/11/24 08:13:35;;;;;;;18.08;9.15;;;9.80;94.00;;;;;;5025024;28;20167;-73
2022/11/24 08:16:06;;;;;;;14.38;6.57;;;9.80;94.20;;;;;;5023606;28;20037;-72
2022/11/24 08:18:32;;;;;;;16.40;8.88;;;9.80;94.00;;;;;;5020399;28;20026;-73
2022/11/24 08:20:59;;;;;;;17.77;9.40;;;9.80;94.00;;;;;;5024911;28;20044;-72
2022/11/24 08:23:25;;;;;;;17.17;7.95;;;9.80;94.10;;;;;;5024381;28;20026;-72
2022/11/24 08:25:51;;;;;;;20.52;9.45;;;9.80;94.10;;;;;;5018617;28;20073;-73
2022/11/24 08:28:17;;;;;;;19.40;9.23;;;9.70;94.10;;;;;;5026214;28;20119;-73
2022/11/24 08:30:43;;;;;;;16.00;9.38;;;9.70;94.50;;;;;;5027463;28;20080;-72
2022/11/24 08:33:08;;;;;;;15.27;7.43;;;9.70;94.30;;;;;;5024528;28;20515;-73
2022/11/24 08:35:39;;;;;;;16.95;8.00;;;9.70;94.30;;;;;;5024521;28;20041;-73
2022/11/24 08:38:05;;;;;;;15.35;6.75;;;9.80;94.20;;;;;;5007787;28;20056;-73
2022/11/24 08:40:31;;;;;;;14.43;7.45;;;9.80;94.40;;;;;;5012702;28;20387;-74
2022/11/24 08:43:00;;;;;;;15.85;6.78;;;9.80;94.40;;;;;;5011991;28;20499;-73
2022/11/24 08:45:27;;;;;;;17.65;6.68;;;9.80;94.30;;;;;;5019244;28;20033;-71
2022/11/24 08:47:56;;;;;;;14.80;7.43;;;9.90;94.20;;;;;;5027395;28;20028;-72
2022/11/24 08:50:24;;;;;;;14.25;6.07;;;9.80;94.20;;;;;;5018159;28;20022;-73
2022/11/24 08:52:52;;;;;;;13.63;6.18;;;9.80;94.40;;;;;;5024186;28;20021;-73
2022/11/24 08:55:18;;;;;;;13.13;7.00;;;9.80;94.80;;;;;;5017876;28;20022;-73
2022/11/24 08:57:44;;;;;;;9.73;5.35;;;9.80;94.50;;;;;;5022351;28;20100;-72
2022/11/24 09:00:10;;;;;;;17.83;6.63;;;9.80;94.50;;;;;;5009228;28;20599;-73
2022/11/24 09:02:36;;;;;;;12.30;5.72;;;9.90;94.50;;;;;;5026129;28;20040;-73
2022/11/24 09:05:02;;;;;;;12.93;5.32;;;9.90;94.50;;;;;;5018173;28;20018;-72
2022/11/24 09:07:27;;;;;;;13.88;5.35;;;9.90;94.70;;;;;;5018203;28;20137;-72
2022/11/24 09:09:53;;;;;;;11.70;4.43;;;10.00;94.70;;;;;;5015641;28;20415;-72
2022/11/24 09:12:18;;;;;;;10.23;6.68;;;10.10;94.50;;;;;;5016337;28;20020;-73
2022/11/24 09:14:44;;;;;;;12.65;6.55;;;10.10;94.10;;;;;;5022670;28;20034;-72
2022/11/24 09:17:10;;;;;;;9.30;4.20;;;10.10;94.00;;;;;;5021377;28;20059;-71
2022/11/24 09:19:35;;;;;;;17.13;5.60;;;10.10;93.80;;;;;;5023856;28;20506;-73
2022/11/24 09:22:01;;;;;;;16.95;5.72;;;10.10;93.90;;;;;;5024967;28;20037;-72
2022/11/24 09:24:26;;;;;;;17.98;6.00;;;10.10;93.90;;;;;;5016555;28;20069;-73
2022/11/24 09:26:53;;;;;;;11.20;4.53;;;10.10;93.90;;;;;;5022048;28;20033;-71
2022/11/24 09:29:18;;;;;;;12.27;5.95;;;10.10;93.80;;;;;;5023284;28;20025;-73
2022/11/24 09:31:44;;;;;;;17.52;5.63;;;10.10;94.10;;;;;;5008244;28;20026;-72
2022/11/24 09:34:14;;;;;;;17.10;6.00;;;10.10;94.40;;;;;;5025178;28;20096;-72
2022/11/24 09:36:40;;;;;;;14.45;5.75;;;10.10;94.60;;;;;;5028292;28;20103;-73
2022/11/24 09:39:05;;;;;;;16.92;5.97;;;10.10;94.70;;;;;;5025251;28;20021;-72
2022/11/24 09:41:33;;;;;;;15.77;5.35;;;10.10;94.70;;;;;;5025650;28;20087;-72
2022/11/24 09:44:27;;;;;;;12.73;5.72;;;10.10;94.80;;;;;;5025486;28;20392;-72
2022/11/24 09:47:30;;;;;;;13.27;4.88;;;10.20;95.00;;;;;;5012070;28;20590;-72
2022/11/24 09:50:02;;;;;;;9.50;3.83;;;10.40;95.00;;;;;;5022633;28;20030;-72
2022/11/24 09:52:39;;;;;;;16.23;4.57;;;10.50;94.50;;;;;;5013810;28;20107;-72
2022/11/24 09:55:22;;;;;;;11.45;3.67;;;10.60;94.10;;;;;;5020550;28;20387;-73
2022/11/24 09:57:57;;;;;;;10.02;2.60;;;10.90;94.10;;;;;;5020056;28;20033;-72
2022/11/24 10:00:23;;;;;;;12.48;3.30;;;11.50;93.60;;;;;;5028180;28;20868;-72
2022/11/24 10:02:49;;;;;;;12.45;3.20;;;12.20;91.80;;;;;;5021327;28;20052;-72
2022/11/24 10:05:15;;;;;;;12.20;3.58;;;12.80;90.20;;;;;;5016505;28;20067;-72
2022/11/24 10:08:04;;;;;;;12.35;3.65;;;13.10;88.60;;;;;;5018984;28;20053;-72
2022/11/24 10:10:53;;;;;;;8.82;2.67;;;13.70;86.70;;;;;;5026323;28;20030;-73
2022/11/24 10:13:45;;;;;;;13.85;2.63;;;14.20;84.50;;;;;;5026627;28;20030;-71
2022/11/24 10:16:32;;;;;;;8.07;2.40;;;14.50;80.40;;;;;;5026397;28;20071;-72
2022/11/24 10:19:20;;;;;;;7.22;2.00;;;14.60;81.20;;;;;;5023501;28;20036;-72
2022/11/24 10:21:56;;;;;;;7.95;2.47;;;15.10;79.80;;;;;;5019821;28;20703;-71
2022/11/24 10:24:25;;;;;;;13.95;3.28;;;15.40;78.40;;;;;;5016357;28;20025;-72
2022/11/24 10:27:12;;;;;;;12.23;3.85;;;15.40;77.10;;;;;;5021333;28;20056;-72
2022/11/24 10:29:42;;;;;;;12.45;2.75;;;15.60;76.20;;;;;;5028442;28;20029;-72
2022/11/24 10:32:20;;;;;;;10.70;2.92;;;15.60;75.50;;;;;;5029467;28;20025;-73
2022/11/24 10:34:49;;;;;;;12.00;3.13;;;15.60;75.40;;;;;;5018538;28;20519;-71
2022/11/24 10:37:27;;;;;;;12.20;2.55;;;15.50;75.30;;;;;;5007707;28;20046;-72
2022/11/24 10:40:16;;;;;;;13.80;3.20;;;15.30;74.80;;;;;;5014358;28;20026;-71
2022/11/24 10:42:42;;;;;;;13.07;3.50;;;15.10;74.90;;;;;;5031049;28;20061;-72
2022/11/24 10:45:12;;;;;;;10.93;2.55;;;15.00;75.40;;;;;;5029036;28;20499;-72
2022/11/24 10:47:39;;;;;;;15.10;3.28;;;15.20;76.00;;;;;;5030877;28;20045;-73
2022/11/24 10:50:21;;;;;;;13.02;3.72;;;15.40;75.20;;;;;;5020245;28;20460;-73
2022/11/24 10:53:07;;;;;;;18.30;3.83;;;15.60;74.30;;;;;;5018838;28;20548;-73
2022/11/24 10:55:55;;;;;;;12.93;2.97;;;15.70;73.10;;;;;;5008792;28;20038;-73
2022/11/24 10:58:28;;;;;;;13.82;3.00;;;15.70;73.60;;;;;;5025769;28;20113;-72
2022/11/24 11:00:57;;;;;;;11.75;2.78;;;15.50;72.20;;;;;;5018891;28;20377;-72
2022/11/24 11:03:26;;;;;;;19.30;3.58;;;15.40;74.00;;;;;;5017041;28;20109;-72
2022/11/24 11:06:15;;;;;;;13.80;4.13;;;15.50;73.10;;;;;;5017480;28;20037;-73
2022/11/24 11:08:41;;;;;;;11.30;3.15;;;15.40;73.00;;;;;;5009895;28;20026;-72
2022/11/24 11:11:19;;;;;;;10.68;2.75;;;15.60;74.10;;;;;;5018646;28;20022;-72
2022/11/24 11:14:01;;;;;;;12.77;3.47;;;15.70;74.10;;;;;;5020591;28;20017;-72
2022/11/24 11:16:41;;;;;;;14.25;3.22;;;15.80;72.70;;;;;;5027613;28;20488;-73
2022/11/24 11:19:46;;;;;;;18.35;3.45;;;15.80;71.80;;;;;;5026063;28;20104;-72
2022/11/24 11:22:20;;;;;;;13.05;3.30;;;15.80;72.50;;;;;;5024993;28;20022;-72
2022/11/24 11:24:47;;;;;;;12.65;3.45;;;16.20;71.40;;;;;;5025514;28;20061;-73
2022/11/24 11:27:26;;;;;;;11.57;2.83;;;16.10;70.70;;;;;;5014677;28;20029;-72
2022/11/24 11:29:52;;;;;;;16.93;5.33;;;16.20;70.70;;;;;;5011836;28;20036;-73
2022/11/24 11:32:20;;;;;;;22.35;5.20;;;16.40;70.90;;;;;;5021405;28;20026;-73
2022/11/24 11:34:47;;;;;;;15.93;4.18;;;16.40;69.30;;;;;;5025345;28;20087;-73
2022/11/24 11:37:14;;;;;;;16.40;4.07;;;16.60;69.40;;;;;;5026198;28;20176;-74
2022/11/24 11:39:49;;;;;;;25.40;6.65;;;16.70;69.00;;;;;;5021138;28;20053;-73
2022/11/24 11:42:43;;;;;;;18.33;4.82;;;16.90;68.00;;;;;;5021068;28;20018;-71
2022/11/24 11:45:27;;;;;;;21.88;5.15;;;16.90;66.90;;;;;;5011558;28;20019;-73
2022/11/24 11:47:55;;;;;;;14.90;4.00;;;17.00;68.30;;;;;;5018814;28;20030;-72
2022/11/24 11:50:32;;;;;;;14.15;3.45;;;17.10;67.10;;;;;;5015175;28;20025;-73
2022/11/24 11:53:09;;;;;;;15.13;3.10;;;17.10;69.20;;;;;;5021156;28;20480;-72
2022/11/24 11:55:44;;;;;;;18.23;4.10;;;17.10;69.00;;;;;;5016851;28;20041;-74
2022/11/24 11:58:55;;;;;;;14.55;3.83;;;17.00;66.10;;;;;;5021822;28;20124;-72
2022/11/24 12:01:51;;;;;;;15.88;3.83;;;16.90;69.40;;;;;;5009684;28;20030;-72
2022/11/24 12:04:42;;;;;;;11.85;3.80;;;17.00;66.60;;;;;;5022885;28;20721;-73
2022/11/24 12:07:35;;;;;;;15.27;3.88;;;17.20;67.60;;;;;;5018488;28;20025;-72
2022/11/24 12:10:49;;;;;;;13.80;3.20;;;17.50;66.60;;;;;;5016456;28;20033;-72
2022/11/24 12:13:33;;;;;;;15.32;3.70;;;17.60;66.20;;;;;;5018410;28;20079;-73
2022/11/24 12:16:14;;;;;;;14.80;3.53;;;17.50;65.00;;;;;;5014011;28;20121;-73
2022/11/24 12:18:55;;;;;;;16.05;4.13;;;17.60;64.50;;;;;;5017942;28;20051;-71
2022/11/24 12:21:37;;;;;;;15.18;3.53;;;17.70;66.00;;;;;;5026200;28;20055;-72
2022/11/24 12:24:33;;;;;;;13.98;3.67;;;17.90;64.40;;;;;;5022290;28;20134;-73
2022/11/24 12:27:15;;;;;;;16.67;3.75;;;18.10;62.90;;;;;;5008676;28;20048;-72
2022/11/24 12:29:57;;;;;;;16.17;5.13;;;18.20;63.50;;;;;;5025088;28;20052;-73
2022/11/24 12:33:09;;;;;;;12.38;2.92;;;18.20;62.20;;;;;;5017751;28;20460;-72
2022/11/24 12:36:21;;;;;;;11.05;3.05;;;18.30;66.10;;;;;;5018865;28;20030;-72
2022/11/24 12:38:52;;;;;;;12.50;3.08;;;18.60;70.20;;;;;;5015812;28;20120;-72
2022/11/24 12:41:56;;;;;;;20.25;3.85;;;18.30;67.20;;;;;;5018437;28;20030;-73
2022/11/24 12:44:43;;;;;;;17.48;4.40;;;18.00;62.30;;;;;;5024646;28;20025;-73
2022/11/24 12:47:18;;;;;;;12.50;3.20;;;18.20;62.80;;;;;;5017943;28;20084;-71
2022/11/24 12:50:02;;;;;;;17.10;3.50;;;18.20;66.20;;;;;;5017543;28;20542;-72
2022/11/24 12:52:34;;;;;;;20.02;4.00;;;18.20;66.40;;;;;;5013800;28;20026;-72
2022/11/24 12:55:01;;;;;;;16.13;3.63;;;18.30;62.50;;;;;;5020770;28;20026;-71
2022/11/24 12:57:43;;;;;;;16.70;3.55;;;18.30;62.50;;;;;;5012626;28;20121;-71
2022/11/24 13:00:28;;;;;;;16.52;3.83;;;18.40;63.20;;;;;;5026730;28;20479;-71
2022/11/24 13:03:09;;;;;;;16.58;3.88;;;18.50;60.70;;;;;;5020486;28;20109;-71
2022/11/24 13:05:53;;;;;;;16.88;3.47;;;18.60;60.40;;;;;;5023004;28;20480;-72
2022/11/24 13:08:20;;;;;;;16.92;4.22;;;18.80;60.80;;;;;;5008884;28;20080;-71